sim
Sign-in with your pilot id or email,
or register
Callsign
Passwort

Schedule Details

Flight Number: OEO8670
Departure: Stuttgart Airport (EDDS) at 11:15
Arrival: Gothenburg Landvetter Airport (ESGG) at 13:15

Weather Information
Getting current METAR information for EDDS 251420Z 21005KT 140V260 9999 FEW047 18/06 Q1007 NOSIG
Getting current METAR information for ESGG 251420Z 22017KT 8000 DZ SCT005 BKN019 11/10 Q0998

Schedule Frequency

Route Map